createdAt,value
2023-05-07T00:00:46.688Z,97532.81
2023-05-07T00:03:15.072Z,97530.63
2023-05-07T00:05:42.632Z,97534.00
2023-05-07T00:08:09.863Z,97531.09
2023-05-07T00:10:37.196Z,97527.72
2023-05-07T00:13:04.430Z,97525.13
2023-05-07T00:15:31.721Z,97527.34
2023-05-07T00:18:00.570Z,97533.38
2023-05-07T00:20:28.178Z,97532.59
2023-05-07T00:22:55.431Z,97523.97
2023-05-07T00:25:22.788Z,97536.16
2023-05-07T00:27:50.158Z,97530.00
2023-05-07T00:30:17.516Z,97520.16
2023-05-07T00:32:46.700Z,97518.25
2023-05-07T00:35:14.035Z,97521.72
2023-05-07T00:37:41.629Z,97526.19
2023-05-07T00:40:09.981Z,97529.91
2023-05-07T00:42:37.875Z,97525.50
2023-05-07T00:45:05.573Z,97529.44
2023-05-07T00:47:33.148Z,97530.03
2023-05-07T00:50:00.636Z,97531.88
2023-05-07T00:52:28.852Z,97539.03
2023-05-07T00:54:56.732Z,97542.41
2023-05-07T00:57:26.538Z,97536.88
2023-05-07T00:59:54.160Z,97538.94
2023-05-07T01:02:21.539Z,97529.84
2023-05-07T01:04:48.775Z,97533.31
2023-05-07T01:07:16.745Z,97534.47
2023-05-07T01:09:43.938Z,97538.44
2023-05-07T01:12:12.376Z,97531.25
2023-05-07T01:14:39.633Z,97529.41
2023-05-07T01:17:07.808Z,97540.28
2023-05-07T01:19:35.883Z,97533.38
2023-05-07T01:22:08.895Z,97541.94
2023-05-07T01:24:45.210Z,97536.94
2023-05-07T01:27:13.297Z,97531.94
2023-05-07T01:29:41.043Z,97532.97
2023-05-07T01:32:09.789Z,97531.38
2023-05-07T01:34:38.496Z,97534.03
2023-05-07T01:37:06.151Z,97538.78
2023-05-07T01:39:34.411Z,97539.09
2023-05-07T01:42:01.826Z,97535.34
2023-05-07T01:44:29.630Z,97535.09
2023-05-07T01:46:58.459Z,97531.41
2023-05-07T01:49:26.148Z,97543.63
2023-05-07T01:51:53.587Z,97537.28
2023-05-07T01:54:21.772Z,97537.91
2023-05-07T01:56:50.037Z,97541.59
2023-05-07T01:59:17.552Z,97531.44
2023-05-07T02:01:45.639Z,97542.56
2023-05-07T02:04:13.368Z,97540.13
2023-05-07T02:06:40.791Z,97547.28
2023-05-07T02:09:10.114Z,97537.97
2023-05-07T02:11:39.005Z,97538.81
2023-05-07T02:14:06.539Z,97543.06
2023-05-07T02:16:33.981Z,97538.38
2023-05-07T02:19:01.822Z,97531.78
2023-05-07T02:21:31.124Z,97536.31
2023-05-07T02:23:58.512Z,97533.19
2023-05-07T02:26:26.984Z,97535.28
2023-05-07T02:28:54.877Z,97531.09
2023-05-07T02:31:22.384Z,97529.56
2023-05-07T02:33:49.775Z,97527.31
2023-05-07T02:36:17.337Z,97527.03
2023-05-07T02:38:55.794Z,97539.03
2023-05-07T02:41:23.174Z,97536.88
2023-05-07T02:43:50.488Z,97537.91
2023-05-07T02:46:18.378Z,97533.53
2023-05-07T02:48:50.021Z,97527.16
2023-05-07T02:51:24.150Z,97539.38
2023-05-07T02:53:54.184Z,97540.19
2023-05-07T02:56:22.127Z,97533.31
2023-05-07T02:58:49.383Z,97533.03
2023-05-07T03:01:18.229Z,97531.22
2023-05-07T03:04:11.867Z,97531.22
2023-05-07T03:06:39.158Z,97533.91
2023-05-07T03:09:06.444Z,97528.66
2023-05-07T03:11:33.764Z,97532.41
2023-05-07T03:14:01.466Z,97534.25
2023-05-07T03:16:29.279Z,97530.78
2023-05-07T03:18:56.646Z,97540.78
2023-05-07T03:21:23.971Z,97544.69
2023-05-07T03:23:51.225Z,97548.00
2023-05-07T03:26:18.569Z,97544.78
2023-05-07T03:28:46.350Z,97556.09
2023-05-07T03:31:16.027Z,97561.97
2023-05-07T03:33:58.481Z,97558.28
2023-05-07T03:36:29.760Z,97558.53
2023-05-07T03:38:57.678Z,97562.75
2023-05-07T03:41:27.849Z,97560.38
2023-05-07T03:43:55.477Z,97570.72
2023-05-07T03:46:22.880Z,97559.34
2023-05-07T03:48:50.205Z,97560.69
2023-05-07T03:51:18.315Z,97568.63
2023-05-07T03:53:45.774Z,97574.44
2023-05-07T03:56:13.495Z,97568.34
2023-05-07T03:58:42.146Z,97566.72
2023-05-07T04:01:12.549Z,97574.16
2023-05-07T04:03:40.363Z,97580.25
2023-05-07T04:06:08.308Z,97580.00
2023-05-07T04:08:37.067Z,97579.19
2023-05-07T04:11:06.467Z,97585.56
2023-05-07T04:13:36.059Z,97584.75
2023-05-07T04:16:08.008Z,97597.97
2023-05-07T04:18:37.169Z,97594.81
2023-05-07T04:21:05.678Z,97599.28
2023-05-07T04:23:34.670Z,97599.31
2023-05-07T04:26:04.859Z,97604.34
2023-05-07T04:28:41.921Z,97606.19
2023-05-07T04:31:09.454Z,97602.50
2023-05-07T04:33:38.494Z,97612.28
2023-05-07T04:36:08.869Z,97614.41
2023-05-07T04:38:43.213Z,97612.53
2023-05-07T04:41:14.036Z,97621.25
2023-05-07T04:43:42.845Z,97624.16
2023-05-07T04:46:12.079Z,97625.75
2023-05-07T04:48:39.760Z,97632.09
2023-05-07T04:51:07.810Z,97635.50
2023-05-07T04:53:35.188Z,97634.97
2023-05-07T04:56:02.839Z,97636.50
2023-05-07T04:58:40.001Z,97644.47
2023-05-07T05:01:07.770Z,97644.13
2023-05-07T05:03:35.282Z,97645.75
2023-05-07T05:06:03.030Z,97643.88
2023-05-07T05:08:33.986Z,97643.31
2023-05-07T05:11:03.941Z,97648.06
2023-05-07T05:13:33.901Z,97644.06
2023-05-07T05:16:05.344Z,97645.91
2023-05-07T05:18:34.118Z,97648.72
2023-05-07T05:21:01.942Z,97656.94
2023-05-07T05:23:30.198Z,97652.00
2023-05-07T05:25:58.902Z,97649.34
2023-05-07T05:28:29.099Z,97661.78
2023-05-07T05:30:57.120Z,97655.72
2023-05-07T05:33:26.426Z,97656.03
2023-05-07T05:35:55.818Z,97656.56
2023-05-07T05:38:23.237Z,97657.41
2023-05-07T05:40:51.334Z,97661.63
2023-05-07T05:43:19.079Z,97668.00
2023-05-07T05:45:46.285Z,97663.56
2023-05-07T05:48:13.754Z,97666.78
2023-05-07T05:50:43.205Z,97665.69
2023-05-07T05:53:11.070Z,97662.03
2023-05-07T05:55:39.443Z,97662.28
2023-05-07T05:58:07.014Z,97664.13
2023-05-07T06:00:38.294Z,97673.31
2023-05-07T06:03:07.177Z,97671.09
2023-05-07T06:05:36.109Z,97674.91
2023-05-07T06:08:03.717Z,97670.94
2023-05-07T06:10:33.977Z,97670.91
2023-05-07T06:13:01.717Z,97671.81
2023-05-07T06:15:30.025Z,97684.22
2023-05-07T06:18:03.534Z,97678.91
2023-05-07T06:20:30.785Z,97679.19
2023-05-07T06:22:59.550Z,97678.38
2023-05-07T06:25:27.034Z,97685.81
2023-05-07T06:27:54.471Z,97683.91
2023-05-07T06:30:21.983Z,97683.69
2023-05-07T06:32:49.396Z,97679.19
2023-05-07T06:35:17.115Z,97677.88
2023-05-07T06:37:44.388Z,97681.03
2023-05-07T06:40:17.868Z,97688.97
2023-05-07T06:42:47.066Z,97690.03
2023-05-07T06:45:34.651Z,97687.66
2023-05-07T06:48:02.203Z,97691.81
2023-05-07T06:50:33.086Z,97696.88
2023-05-07T06:53:00.511Z,97700.34
2023-05-07T06:55:27.912Z,97699.28
2023-05-07T06:57:56.130Z,97700.59
2023-05-07T07:00:25.379Z,97702.22
2023-05-07T07:02:56.609Z,97701.69
2023-05-07T07:05:27.965Z,97701.13
2023-05-07T07:07:56.203Z,97707.00
2023-05-07T07:10:24.784Z,97708.88
2023-05-07T07:12:53.940Z,97715.50
2023-05-07T07:15:22.306Z,97720.25
2023-05-07T07:17:51.067Z,97722.09
2023-05-07T07:20:18.507Z,97714.44
2023-05-07T07:22:46.765Z,97719.75
2023-05-07T07:25:15.614Z,97724.22
2023-05-07T07:27:43.168Z,97720.25
2023-05-07T07:30:11.614Z,97735.31
2023-05-07T07:32:41.920Z,97735.31
2023-05-07T07:35:10.155Z,97731.91
2023-05-07T07:37:38.660Z,97731.09
2023-05-07T07:40:07.386Z,97731.09
2023-05-07T07:42:35.527Z,97728.19
2023-05-07T07:45:03.888Z,97735.06
2023-05-07T07:47:34.572Z,97740.38
2023-05-07T07:50:02.066Z,97739.84
2023-05-07T07:52:29.785Z,97738.53
2023-05-07T07:54:57.210Z,97737.72
2023-05-07T07:57:24.749Z,97743.28
2023-05-07T07:59:52.558Z,97747.78
2023-05-07T08:02:20.776Z,97747.00
2023-05-07T08:04:49.571Z,97748.31
2023-05-07T08:07:21.547Z,97753.88
2023-05-07T08:09:50.034Z,97752.81
2023-05-07T08:12:21.452Z,97760.47
2023-05-07T08:14:49.856Z,97765.75
2023-05-07T08:17:17.540Z,97764.44
2023-05-07T08:19:45.990Z,97760.75
2023-05-07T08:22:15.178Z,97765.25
2023-05-07T08:24:42.648Z,97757.84
2023-05-07T08:27:10.595Z,97771.59
2023-05-07T08:29:39.233Z,97773.19
2023-05-07T08:32:06.586Z,97770.53
2023-05-07T08:34:33.997Z,97776.09
2023-05-07T08:37:04.647Z,97778.75
2023-05-07T08:39:33.278Z,97784.03
2023-05-07T08:42:05.859Z,97782.13
2023-05-07T08:44:38.427Z,97780.84
2023-05-07T08:47:08.781Z,97795.44
2023-05-07T08:49:37.913Z,97785.66
2023-05-07T08:52:09.703Z,97797.00
2023-05-07T08:54:39.718Z,97798.59
2023-05-07T08:57:09.420Z,97797.97
2023-05-07T08:59:38.106Z,97804.09
2023-05-07T09:02:10.547Z,97808.06
2023-05-07T09:04:38.331Z,97810.63
2023-05-07T09:07:06.592Z,97804.06
2023-05-07T09:09:38.947Z,97807.22
2023-05-07T09:12:07.740Z,97817.31
2023-05-07T09:14:36.975Z,97813.34
2023-05-07T09:17:05.383Z,97819.47
2023-05-07T09:19:32.989Z,97813.81
2023-05-07T09:22:05.023Z,97825.00
2023-05-07T09:24:41.793Z,97828.16
2023-05-07T09:27:14.606Z,97827.03
2023-05-07T09:29:45.777Z,97829.47
2023-05-07T09:32:17.039Z,97832.69
2023-05-07T09:34:44.358Z,97830.22
2023-05-07T09:37:15.510Z,97833.38
2023-05-07T09:39:45.964Z,97834.97
2023-05-07T09:42:18.453Z,97832.00
2023-05-07T09:44:46.168Z,97845.50
2023-05-07T09:47:21.141Z,97841.34
2023-05-07T09:49:55.309Z,97839.81
2023-05-07T09:52:22.827Z,97838.91
2023-05-07T09:54:54.127Z,97844.50
2023-05-07T09:57:25.176Z,97855.69
2023-05-07T09:59:59.094Z,97854.75
2023-05-07T10:02:31.910Z,97855.72
2023-05-07T10:05:01.666Z,97853.97
2023-05-07T10:07:32.645Z,97861.53
2023-05-07T10:10:07.540Z,97854.53
2023-05-07T10:12:41.547Z,97858.97
2023-05-07T10:15:15.711Z,97867.72
2023-05-07T10:17:48.059Z,97870.59
2023-05-07T10:20:16.457Z,97873.53
2023-05-07T10:22:50.975Z,97863.81
2023-05-07T10:25:34.300Z,97863.25
2023-05-07T10:28:12.206Z,97868.72
2023-05-07T10:31:29.230Z,97870.78
2023-05-07T10:33:58.054Z,97868.66
2023-05-07T10:36:27.444Z,97871.94
2023-05-07T10:38:56.085Z,97872.66
2023-05-07T10:41:23.495Z,97875.03
2023-05-07T10:43:52.353Z,97869.22
2023-05-07T10:46:25.003Z,97877.16
2023-05-07T10:49:12.892Z,97878.19
2023-05-07T10:52:20.103Z,97874.44
2023-05-07T10:55:18.715Z,97880.00
2023-05-07T10:58:32.579Z,97880.72
2023-05-07T11:01:57.252Z,97882.84
2023-05-07T11:05:25.776Z,97882.72
2023-05-07T11:08:10.497Z,97885.44
2023-05-07T11:10:56.497Z,97889.00
2023-05-07T11:13:53.178Z,97886.00
2023-05-07T11:16:45.549Z,97891.38
2023-05-07T11:19:55.883Z,97887.03
2023-05-07T11:22:41.043Z,97885.78
2023-05-07T11:25:20.672Z,97894.84
2023-05-07T11:27:54.208Z,97898.44
2023-05-07T11:30:21.655Z,97903.44
2023-05-07T11:32:50.072Z,97901.94
2023-05-07T11:35:19.475Z,97903.47
2023-05-07T11:37:50.106Z,97913.25
2023-05-07T11:40:18.949Z,97898.97
2023-05-07T11:42:46.307Z,97905.00
2023-05-07T11:45:23.724Z,97909.41
2023-05-07T11:47:51.231Z,97909.91
2023-05-07T11:50:18.561Z,97910.59
2023-05-07T11:52:53.514Z,97902.25
2023-05-07T11:55:21.024Z,97919.53
2023-05-07T11:57:48.377Z,97907.16
2023-05-07T12:00:17.950Z,97915.44
2023-05-07T12:02:47.003Z,97925.81
2023-05-07T12:05:14.802Z,97924.03
2023-05-07T12:07:42.457Z,97924.78
2023-05-07T12:10:12.577Z,97926.72
2023-05-07T12:12:47.022Z,97933.81
2023-05-07T12:15:18.349Z,97937.03
2023-05-07T12:17:46.073Z,97925.19
2023-05-07T12:20:13.927Z,97934.97
2023-05-07T12:22:42.188Z,97928.81
2023-05-07T12:25:10.582Z,97928.41
2023-05-07T12:27:40.248Z,97931.44
2023-05-07T12:30:11.407Z,97930.69
2023-05-07T12:32:38.961Z,97930.91
2023-05-07T12:35:08.320Z,97933.22
2023-05-07T12:37:37.305Z,97939.63
2023-05-07T12:40:12.688Z,97947.13
2023-05-07T12:42:41.926Z,97943.66
2023-05-07T12:45:12.370Z,97934.66
2023-05-07T12:47:40.561Z,97938.03
2023-05-07T12:50:08.712Z,97940.06
2023-05-07T12:52:36.334Z,97937.13
2023-05-07T12:55:09.056Z,97937.09
2023-05-07T12:57:51.644Z,97946.38
2023-05-07T13:00:33.354Z,97942.94
2023-05-07T13:03:01.131Z,97944.13
2023-05-07T13:05:28.462Z,97939.19
2023-05-07T13:07:57.571Z,97937.03
2023-05-07T13:10:25.597Z,97939.22
2023-05-07T13:12:53.720Z,97933.81
2023-05-07T13:15:21.410Z,97941.88
2023-05-07T13:17:48.793Z,97942.44
2023-05-07T13:20:16.633Z,97946.13
2023-05-07T13:22:43.934Z,97948.69
2023-05-07T13:25:11.655Z,97940.47
2023-05-07T13:27:39.266Z,97936.09
2023-05-07T13:30:07.757Z,97952.03
2023-05-07T13:32:35.029Z,97951.78
2023-05-07T13:35:02.782Z,97942.59
2023-05-07T13:37:30.148Z,97941.66
2023-05-07T13:39:57.397Z,97947.00
2023-05-07T13:42:24.734Z,97946.09
2023-05-07T13:44:52.021Z,97942.56
2023-05-07T13:47:19.280Z,97941.47
2023-05-07T13:49:46.613Z,97942.44
2023-05-07T13:52:13.933Z,97940.88
2023-05-07T13:54:41.494Z,97943.00
2023-05-07T13:57:08.887Z,97945.44
2023-05-07T13:59:36.163Z,97946.75
2023-05-07T14:02:03.643Z,97953.75
2023-05-07T14:04:32.367Z,97951.56
2023-05-07T14:06:59.660Z,97944.63
2023-05-07T14:09:26.974Z,97955.06
2023-05-07T14:11:54.300Z,97956.84
2023-05-07T14:14:21.544Z,97958.94
2023-05-07T14:16:50.722Z,97958.63
2023-05-07T14:19:18.489Z,97968.56
2023-05-07T14:21:45.855Z,97965.34
2023-05-07T14:24:13.527Z,97971.84
2023-05-07T14:26:41.104Z,97968.09
2023-05-07T14:29:08.323Z,97974.16
2023-05-07T14:31:35.967Z,97970.06
2023-05-07T14:34:03.465Z,97969.88
2023-05-07T14:36:32.837Z,97974.75
2023-05-07T14:39:00.534Z,97976.88
2023-05-07T14:41:28.994Z,97983.97
2023-05-07T14:43:56.454Z,97974.69
2023-05-07T14:46:25.060Z,97980.09
2023-05-07T14:48:52.354Z,97983.69
2023-05-07T14:51:19.732Z,97978.84
2023-05-07T14:53:47.063Z,97989.13
2023-05-07T14:56:14.275Z,97984.56
2023-05-07T14:58:41.658Z,97981.47
2023-05-07T15:01:09.030Z,97978.84
2023-05-07T15:03:37.014Z,97974.66
2023-05-07T15:06:04.423Z,97980.22
2023-05-07T15:08:31.651Z,97972.66
2023-05-07T15:10:59.077Z,97985.56
2023-05-07T15:13:26.496Z,97988.72
2023-05-07T15:15:53.952Z,97984.28
2023-05-07T15:18:22.816Z,97992.78
2023-05-07T15:20:50.539Z,97994.00
2023-05-07T15:23:17.880Z,98001.31
2023-05-07T15:25:50.334Z,98011.09
2023-05-07T15:28:19.920Z,97998.88
2023-05-07T15:30:47.208Z,98008.47
2023-05-07T15:33:14.489Z,98006.97
2023-05-07T15:35:41.847Z,98009.13
2023-05-07T15:38:09.797Z,98013.66
2023-05-07T15:40:38.794Z,98018.28
2023-05-07T15:43:06.004Z,98006.63
2023-05-07T15:45:33.588Z,98015.50
2023-05-07T15:48:01.284Z,98014.88
2023-05-07T15:50:29.702Z,98022.31
2023-05-07T15:52:57.003Z,98024.78
2023-05-07T15:55:24.650Z,98020.94
2023-05-07T15:57:52.750Z,98023.31
2023-05-07T16:00:20.559Z,98023.75
2023-05-07T16:02:47.968Z,98016.75
2023-05-07T16:05:15.975Z,98016.47
2023-05-07T16:07:44.461Z,98016.56
2023-05-07T16:10:12.561Z,98012.16
2023-05-07T16:12:40.196Z,98013.50
2023-05-07T16:15:08.661Z,98014.69
2023-05-07T16:17:36.088Z,98013.34
2023-05-07T16:20:06.573Z,98017.47
2023-05-07T16:22:33.900Z,98017.34
2023-05-07T16:25:01.821Z,98019.91
2023-05-07T16:27:29.086Z,98014.00
2023-05-07T16:29:56.477Z,98014.78
2023-05-07T16:32:23.868Z,98013.41
2023-05-07T16:34:51.775Z,98015.34
2023-05-07T16:37:19.188Z,98017.88
2023-05-07T16:39:46.769Z,98014.50
2023-05-07T16:42:14.263Z,98014.94
2023-05-07T16:44:41.576Z,98008.31
2023-05-07T16:47:08.820Z,98020.50
2023-05-07T16:49:36.035Z,98016.00
2023-05-07T16:52:05.207Z,98012.69
2023-05-07T16:54:32.632Z,98014.78
2023-05-07T16:57:00.029Z,98013.66
2023-05-07T16:59:31.460Z,98021.41
2023-05-07T17:01:59.512Z,98021.31
2023-05-07T17:04:27.082Z,98026.72
2023-05-07T17:06:54.498Z,98030.22
2023-05-07T17:09:21.665Z,98032.47
2023-05-07T17:11:48.970Z,98032.13
2023-05-07T17:14:16.299Z,98025.59
2023-05-07T17:16:43.692Z,98039.97
2023-05-07T17:19:10.978Z,98040.25
2023-05-07T17:21:38.256Z,98048.03
2023-05-07T17:24:06.316Z,98045.75
2023-05-07T17:26:36.438Z,98050.88
2023-05-07T17:29:04.485Z,98051.75
2023-05-07T17:31:31.985Z,98049.09
2023-05-07T17:33:59.320Z,98057.25
2023-05-07T17:36:26.853Z,98051.78
2023-05-07T17:38:54.214Z,98045.72
2023-05-07T17:41:22.707Z,98036.78
2023-05-07T17:43:50.095Z,98050.38
2023-05-07T17:46:18.395Z,98054.28
2023-05-07T17:48:45.831Z,98052.63
2023-05-07T17:51:13.275Z,98048.63
2023-05-07T17:53:40.598Z,98045.28
2023-05-07T17:56:08.220Z,98056.28
2023-05-07T17:58:42.759Z,98042.63
2023-05-07T18:01:15.243Z,98043.31
2023-05-07T18:03:42.912Z,98039.69
2023-05-07T18:06:11.222Z,98042.06
2023-05-07T18:08:38.595Z,98041.38
2023-05-07T18:11:06.057Z,98046.56
2023-05-07T18:13:33.506Z,98041.06
2023-05-07T18:16:01.040Z,98049.56
2023-05-07T18:18:30.820Z,98053.25
2023-05-07T18:20:58.525Z,98048.03
2023-05-07T18:23:26.266Z,98055.03
2023-05-07T18:25:54.030Z,98053.38
2023-05-07T18:28:21.341Z,98053.22
2023-05-07T18:30:48.661Z,98048.88
2023-05-07T18:33:15.998Z,98060.19
2023-05-07T18:35:43.444Z,98057.16
2023-05-07T18:38:11.253Z,98057.94
2023-05-07T18:40:43.998Z,98065.09
2023-05-07T18:43:11.906Z,98072.34
2023-05-07T18:45:39.405Z,98081.56
2023-05-07T18:48:07.451Z,98083.50
2023-05-07T18:50:34.842Z,98082.03
2023-05-07T18:53:02.809Z,98087.91
2023-05-07T18:55:30.079Z,98093.84
2023-05-07T18:57:57.358Z,98088.13
2023-05-07T19:00:24.838Z,98096.44
2023-05-07T19:02:52.279Z,98091.44
2023-05-07T19:05:19.900Z,98091.84
2023-05-07T19:07:47.343Z,98075.84
2023-05-07T19:10:15.892Z,98092.38
2023-05-07T19:12:43.173Z,98091.13
2023-05-07T19:15:11.162Z,98095.38
2023-05-07T19:17:38.527Z,98098.44
2023-05-07T19:22:35.404Z,98103.88
2023-05-07T19:25:02.934Z,98104.16
2023-05-07T19:27:30.290Z,98107.31
2023-05-07T19:29:57.684Z,98101.81
2023-05-07T19:32:25.608Z,98113.97
2023-05-07T19:34:52.973Z,98115.16
2023-05-07T19:37:24.174Z,98112.06
2023-05-07T19:39:52.959Z,98117.78
2023-05-07T19:42:20.260Z,98123.94
2023-05-07T19:44:47.558Z,98117.50
2023-05-07T19:47:16.227Z,98117.09
2023-05-07T19:49:43.400Z,98111.34
2023-05-07T19:52:10.747Z,98114.22
2023-05-07T19:54:38.093Z,98106.63
2023-05-07T19:57:05.434Z,98114.56
2023-05-07T19:59:32.651Z,98117.44
2023-05-07T20:02:00.010Z,98111.00
2023-05-07T20:04:31.985Z,98109.75
2023-05-07T20:07:00.614Z,98113.06
2023-05-07T20:09:28.049Z,98111.81
2023-05-07T20:11:55.289Z,98114.34
2023-05-07T20:14:22.752Z,98120.28
2023-05-07T20:16:50.190Z,98126.09
2023-05-07T20:19:18.668Z,98123.97
2023-05-07T20:21:46.220Z,98122.25
2023-05-07T20:24:13.514Z,98126.38
2023-05-07T20:26:41.399Z,98126.38
2023-05-07T20:29:08.638Z,98135.03
2023-05-07T20:31:36.230Z,98140.22
2023-05-07T20:34:03.667Z,98138.03
2023-05-07T20:36:30.864Z,98131.72
2023-05-07T20:38:58.064Z,98135.16
2023-05-07T20:41:25.604Z,98136.06
2023-05-07T20:43:52.888Z,98137.91
2023-05-07T20:46:23.310Z,98129.22
2023-05-07T20:48:51.140Z,98136.91
2023-05-07T20:51:18.429Z,98127.50
2023-05-07T20:53:47.502Z,98132.75
2023-05-07T20:56:16.112Z,98128.06
2023-05-07T20:58:43.378Z,98134.34
2023-05-07T21:01:11.047Z,98141.47
2023-05-07T21:03:38.309Z,98142.09
2023-05-07T21:06:05.672Z,98137.31
2023-05-07T21:08:33.052Z,98143.97
2023-05-07T21:11:01.406Z,98142.97
2023-05-07T21:13:28.914Z,98148.25
2023-05-07T21:15:56.168Z,98141.50
2023-05-07T21:18:25.327Z,98151.41
2023-05-07T21:20:52.672Z,98142.59
2023-05-07T21:23:19.897Z,98144.44
2023-05-07T21:25:48.276Z,98145.00
2023-05-07T21:28:15.550Z,98146.88
2023-05-07T21:30:42.833Z,98148.00
2023-05-07T21:33:10.326Z,98156.78
2023-05-07T21:35:37.618Z,98144.88
2023-05-07T21:38:04.941Z,98150.47
2023-05-07T21:40:32.169Z,98154.97
2023-05-07T21:43:00.736Z,98148.44
2023-05-07T21:45:28.022Z,98154.03
2023-05-07T21:47:55.712Z,98160.09
2023-05-07T21:50:23.182Z,98162.38
2023-05-07T21:52:50.757Z,98162.53
2023-05-07T21:55:19.023Z,98158.16
2023-05-07T21:57:57.454Z,98151.88
2023-05-07T22:00:33.016Z,98163.22
2023-05-07T22:03:01.179Z,98159.31
2023-05-07T22:05:28.637Z,98160.25
2023-05-07T22:07:55.852Z,98168.69
2023-05-07T22:10:23.309Z,98162.88
2023-05-07T22:12:50.714Z,98167.31
2023-05-07T22:15:18.346Z,98169.63
2023-05-07T22:17:45.746Z,98161.50
2023-05-07T22:20:13.547Z,98167.53
2023-05-07T22:22:55.940Z,98165.50
2023-05-07T22:25:24.635Z,98164.59
2023-05-07T22:27:52.309Z,98164.91
2023-05-07T22:30:19.651Z,98167.00
2023-05-07T22:32:46.893Z,98167.31
2023-05-07T22:35:14.190Z,98155.53
2023-05-07T22:37:41.384Z,98156.69
2023-05-07T22:40:09.433Z,98162.38
2023-05-07T22:42:36.663Z,98150.59
2023-05-07T22:45:04.222Z,98152.66
2023-05-07T22:47:31.612Z,98151.09
2023-05-07T22:49:58.902Z,98151.19
2023-05-07T22:52:26.182Z,98146.63
2023-05-07T22:54:53.408Z,98151.09
2023-05-07T22:57:20.790Z,98142.38
2023-05-07T22:59:48.049Z,98148.56
2023-05-07T23:02:15.319Z,98145.84
2023-05-07T23:04:42.714Z,98149.00
2023-05-07T23:07:10.060Z,98145.84
2023-05-07T23:09:37.326Z,98143.31
2023-05-07T23:12:05.169Z,98153.03
2023-05-07T23:14:32.681Z,98147.53
2023-05-07T23:16:59.993Z,98143.41
2023-05-07T23:19:27.403Z,98142.97
2023-05-07T23:21:54.710Z,98144.91
2023-05-07T23:24:21.836Z,98151.66
2023-05-07T23:26:49.099Z,98147.28
2023-05-07T23:29:16.357Z,98143.06
2023-05-07T23:31:43.640Z,98151.84
2023-05-07T23:34:10.936Z,98147.44
2023-05-07T23:36:38.318Z,98139.66
2023-05-07T23:39:05.670Z,98134.38
2023-05-07T23:41:33.048Z,98140.22
2023-05-07T23:44:00.297Z,98127.84
2023-05-07T23:46:28.031Z,98118.91
2023-05-07T23:48:55.407Z,98122.03
2023-05-07T23:51:22.654Z,98113.13
2023-05-07T23:53:49.986Z,98115.63
2023-05-07T23:56:17.172Z,98116.19
2023-05-07T23:58:44.432Z,98119.53
